Time;durP1;ratioP1;P1;durP2;ratioP2;P2;SDS_P1;SDS_P2;PMS_P1;PMS_P2;Temp;Humidity;BMP_temperature;BMP_pressure;BME280_temperature;BME280_humidity;BME280_pressure;Samples;Min_cycle;Max_cycle;Signal;HPM_P1;HPM_P2
2023/07/12 00:01:34;;;;;;;;;;;;;;;27.49;41.61;98424.72;5095295;28;20313;-46
2023/07/12 00:03:59;;;;;;;;;;;;;;;27.49;41.94;98413.94;5094021;28;19919;-46
2023/07/12 00:06:36;;;;;;;;;;;;;;;27.47;41.98;98416.16;5095173;28;19912;-46
2023/07/12 00:09:02;;;;;;;;;;;;;;;27.47;42.25;98408.06;5095175;28;19958;-46
2023/07/12 00:11:27;;;;;;;;;;;;;;;27.40;42.04;98402.34;5095177;28;19916;-46
2023/07/12 00:13:54;;;;;;;;;;;;;;;27.30;42.31;98396.16;5095123;28;20011;-46
2023/07/12 00:16:25;;;;;;;;;;;;;;;27.20;42.24;98385.69;5095055;28;20010;-46
2023/07/12 00:18:51;;;;;;;;;;;;;;;27.15;42.17;98379.69;5095006;28;20337;-45
2023/07/12 00:21:24;;;;;;;;;;;;;;;27.24;42.24;98399.34;5095218;28;20338;-46
2023/07/12 00:23:53;;;;;;;;;;;;;;;27.27;41.74;98396.03;5094933;28;19912;-46
2023/07/12 00:26:29;;;;;;;;;;;;;;;27.59;42.34;98419.00;5093388;28;19912;-46
2023/07/12 00:28:55;;;;;;;;;;;;;;;28.21;41.57;98433.94;5094821;28;19939;-46
2023/07/12 00:31:21;;;;;;;;;;;;;;;28.68;40.89;98420.41;5094746;28;20365;-46
2023/07/12 00:33:46;;;;;;;;;;;;;;;28.73;40.00;98410.53;5093218;28;20382;-46
2023/07/12 00:36:16;;;;;;;;;;;;;;;28.56;40.48;98401.41;5094695;28;20306;-46
2023/07/12 00:38:42;;;;;;;;;;;;;;;28.71;40.64;98404.66;5094687;28;20446;-46
2023/07/12 00:41:07;;;;;;;;;;;;;;;28.66;40.34;98395.63;5094550;28;19939;-46
2023/07/12 00:43:40;;;;;;;;;;;;;;;28.57;39.68;98386.78;5093207;28;20369;-46
2023/07/12 00:46:29;;;;;;;;;;;;;;;28.20;42.79;98367.59;5094510;28;19912;-46
2023/07/12 00:48:54;;;;;;;;;;;;;;;27.50;46.67;98369.66;5094473;28;19919;-46
2023/07/12 00:51:38;;;;;;;;;;;;;;;27.11;49.95;98392.97;5093628;28;19920;-46
2023/07/12 00:54:09;;;;;;;;;;;;;;;27.08;52.11;98372.88;5094389;28;19912;-46
2023/07/12 00:56:35;;;;;;;;;;;;;;;27.03;51.68;98356.84;5094322;28;20369;-46
2023/07/12 00:59:06;;;;;;;;;;;;;;;26.69;52.34;98385.31;5094295;28;19923;-46
2023/07/12 01:01:34;;;;;;;;;;;;;;;26.28;56.09;98424.13;5094155;28;19918;-45
2023/07/12 01:04:02;;;;;;;;;;;;;;;25.74;61.16;98462.88;5092817;28;20293;-45
2023/07/12 01:06:28;;;;;;;;;;;;;;;25.21;66.49;98464.28;5093930;28;19912;-45
2023/07/12 01:08:56;;;;;;;;;;;;;;;24.71;70.97;98438.25;5094063;28;19912;-45
2023/07/12 01:11:21;;;;;;;;;;;;;;;24.10;74.53;98427.53;5094216;28;20293;-45
2023/07/12 01:13:48;;;;;;;;;;;;;;;23.84;76.83;98378.13;5094239;28;19912;-45
2023/07/12 01:16:15;;;;;;;;;;;;;;;23.71;79.69;98406.47;5093892;28;19916;-45
2023/07/12 01:18:41;;;;;;;;;;;;;;;23.11;82.19;98527.56;5092508;28;19920;-44
2023/07/12 01:21:08;;;;;;;;;;;;;;;22.69;86.86;98553.16;5093807;28;19916;-43
2023/07/12 01:23:33;;;;;;;;;;;;;;;22.59;90.76;98599.53;5094304;28;19998;-44
2023/07/12 01:26:17;;;;;;;;;;;;;;;22.47;89.69;98652.59;5092382;28;20368;-44
2023/07/12 01:28:43;;;;;;;;;;;;;;;22.17;90.13;98653.56;5093634;28;19986;-43
2023/07/12 01:31:09;;;;;;;;;;;;;;;21.58;92.41;98693.41;5092408;28;19916;-44
2023/07/12 01:33:34;;;;;;;;;;;;;;;21.31;96.23;98645.66;5092041;28;19916;-43
2023/07/12 01:36:00;;;;;;;;;;;;;;;21.18;98.67;98623.00;5092564;28;20436;-44
2023/07/12 01:38:25;;;;;;;;;;;;;;;21.04;100.00;98637.97;5093477;28;20393;-43
2023/07/12 01:40:51;;;;;;;;;;;;;;;21.02;100.00;98581.41;5093367;28;20404;-44
2023/07/12 01:43:16;;;;;;;;;;;;;;;21.09;100.00;98545.38;5093314;28;20408;-44
2023/07/12 01:45:42;;;;;;;;;;;;;;;21.00;100.00;98487.50;5092142;28;19916;-44
2023/07/12 01:48:07;;;;;;;;;;;;;;;20.82;100.00;98449.69;5093270;28;19912;-43
2023/07/12 01:50:33;;;;;;;;;;;;;;;20.78;100.00;98429.97;5093189;28;20384;-43
2023/07/12 01:52:58;;;;;;;;;;;;;;;20.66;100.00;98424.94;5091915;28;20396;-43
2023/07/12 01:55:23;;;;;;;;;;;;;;;20.57;100.00;98439.91;5091804;28;19912;-43
2023/07/12 01:57:49;;;;;;;;;;;;;;;20.79;100.00;98463.59;5091782;28;19999;-43
2023/07/12 02:00:14;;;;;;;;;;;;;;;21.01;100.00;98497.13;5092993;28;20006;-42
2023/07/12 02:02:40;;;;;;;;;;;;;;;21.25;100.00;98506.09;5092053;28;19967;-42
2023/07/12 02:05:06;;;;;;;;;;;;;;;21.46;100.00;98500.66;5093002;28;19919;-42
2023/07/12 02:07:32;;;;;;;;;;;;;;;21.59;100.00;98496.56;5091574;28;19912;-43
2023/07/12 02:10:08;;;;;;;;;;;;;;;21.49;100.00;98498.25;5092900;28;19918;-43
2023/07/12 02:12:33;;;;;;;;;;;;;;;21.33;100.00;98488.69;5093104;28;19962;-43
2023/07/12 02:14:59;;;;;;;;;;;;;;;21.30;100.00;98479.34;5091537;28;20330;-43
2023/07/12 02:17:24;;;;;;;;;;;;;;;21.42;100.00;98483.56;5092719;28;19912;-43
2023/07/12 02:19:50;;;;;;;;;;;;;;;21.60;100.00;98476.81;5091473;28;20297;-43
2023/07/12 02:22:15;;;;;;;;;;;;;;;21.47;100.00;98479.03;5091324;28;20275;-43
2023/07/12 02:24:40;;;;;;;;;;;;;;;21.34;100.00;98475.06;5091372;28;19917;-43
2023/07/12 02:27:06;;;;;;;;;;;;;;;21.27;100.00;98484.44;5092583;28;19912;-43
2023/07/12 02:29:31;;;;;;;;;;;;;;;21.26;100.00;98499.66;5092551;28;20370;-43
2023/07/12 02:31:57;;;;;;;;;;;;;;;21.27;100.00;98514.63;5092560;28;19923;-43
2023/07/12 02:34:22;;;;;;;;;;;;;;;21.31;100.00;98531.69;5092292;28;20274;-43
2023/07/12 02:36:48;;;;;;;;;;;;;;;21.68;100.00;98541.09;5092411;28;19947;-43
2023/07/12 02:39:13;;;;;;;;;;;;;;;22.11;100.00;98536.00;5092489;28;19912;-44
2023/07/12 02:41:38;;;;;;;;;;;;;;;22.53;100.00;98534.59;5091167;28;19916;-44
2023/07/12 02:44:04;;;;;;;;;;;;;;;22.83;100.00;98559.44;5092736;28;19974;-44
2023/07/12 02:46:29;;;;;;;;;;;;;;;22.85;100.00;98570.66;5092565;28;19951;-44
2023/07/12 02:48:54;;;;;;;;;;;;;;;23.03;100.00;98577.19;5091056;28;20352;-44
2023/07/12 02:51:20;;;;;;;;;;;;;;;23.16;100.00;98556.16;5092320;28;20401;-44
2023/07/12 02:53:45;;;;;;;;;;;;;;;23.41;100.00;98526.38;5092354;28;20018;-44
2023/07/12 02:56:11;;;;;;;;;;;;;;;23.50;100.00;98515.81;5092292;28;20010;-44
2023/07/12 02:58:37;;;;;;;;;;;;;;;23.63;100.00;98517.00;5092302;28;19918;-44
2023/07/12 03:01:02;;;;;;;;;;;;;;;23.80;100.00;98524.53;5092490;28;19961;-44
2023/07/12 03:03:28;;;;;;;;;;;;;;;23.70;100.00;98534.31;5090854;28;20437;-44
2023/07/12 03:05:53;;;;;;;;;;;;;;;23.17;100.00;98541.72;5090911;28;19965;-44
2023/07/12 03:08:19;;;;;;;;;;;;;;;22.77;100.00;98541.06;5092091;28;19955;-44
2023/07/12 03:10:44;;;;;;;;;;;;;;;22.48;100.00;98561.38;5090882;28;19966;-43
2023/07/12 03:13:09;;;;;;;;;;;;;;;22.20;100.00;98575.50;5092137;28;19916;-44
2023/07/12 03:15:38;;;;;;;;;;;;;;;21.97;100.00;98566.31;5096127;28;19912;-44
2023/07/12 03:18:04;;;;;;;;;;;;;;;21.83;100.00;98545.56;5096189;28;19916;-43
2023/07/12 03:20:32;;;;;;;;;;;;;;;21.89;100.00;98519.59;5096396;28;19919;-43
2023/07/12 03:22:57;;;;;;;;;;;;;;;22.22;100.00;98493.94;5096101;28;19946;-44
2023/07/12 03:25:22;;;;;;;;;;;;;;;22.74;100.00;98483.56;5096060;28;19912;-44
2023/07/12 03:27:48;;;;;;;;;;;;;;;23.02;100.00;98497.97;5094685;28;20058;-43
2023/07/12 03:30:13;;;;;;;;;;;;;;;23.03;100.00;98491.53;5094853;28;19989;-44
2023/07/12 03:32:40;;;;;;;;;;;;;;;22.96;100.00;98477.69;5096272;28;19923;-44
2023/07/12 03:35:05;;;;;;;;;;;;;;;22.58;100.00;98479.44;5094336;28;19956;-44
2023/07/12 03:37:31;;;;;;;;;;;;;;;22.26;100.00;98476.28;5095853;28;19978;-44
2023/07/12 03:39:56;;;;;;;;;;;;;;;22.11;100.00;98474.53;5094535;28;19912;-44
2023/07/12 03:42:22;;;;;;;;;;;;;;;21.98;100.00;98445.78;5095689;28;19916;-44
2023/07/12 03:44:47;;;;;;;;;;;;;;;21.90;100.00;98446.41;5095966;28;19912;-45
2023/07/12 03:47:12;;;;;;;;;;;;;;;21.83;100.00;98421.88;5094265;28;20006;-44
2023/07/12 03:49:38;;;;;;;;;;;;;;;21.83;100.00;98414.66;5095838;28;20377;-44
2023/07/12 03:52:03;;;;;;;;;;;;;;;22.00;100.00;98403.53;5095575;28;19912;-44
2023/07/12 03:54:29;;;;;;;;;;;;;;;22.28;100.00;98399.28;5094203;28;19915;-44
2023/07/12 03:56:54;;;;;;;;;;;;;;;22.69;100.00;98400.69;5095478;28;19919;-45
2023/07/12 03:59:20;;;;;;;;;;;;;;;23.01;100.00;98383.94;5095441;28;19969;-44
2023/07/12 04:01:45;;;;;;;;;;;;;;;23.17;100.00;98371.16;5095294;28;19912;-45
2023/07/12 04:04:10;;;;;;;;;;;;;;;23.29;100.00;98381.41;5095291;28;19920;-44
2023/07/12 04:06:36;;;;;;;;;;;;;;;23.17;100.00;98413.19;5095231;28;19957;-45
2023/07/12 04:09:02;;;;;;;;;;;;;;;23.14;100.00;98452.06;5093888;28;19915;-45
2023/07/12 04:11:31;;;;;;;;;;;;;;;23.10;100.00;98478.59;5095464;28;19962;-44
2023/07/12 04:13:59;;;;;;;;;;;;;;;23.05;100.00;98484.00;5095166;28;19961;-45
2023/07/12 04:16:24;;;;;;;;;;;;;;;22.72;100.00;98496.44;5095058;28;19923;-45
2023/07/12 04:18:50;;;;;;;;;;;;;;;22.42;100.00;98514.38;5093706;28;19916;-45
2023/07/12 04:21:16;;;;;;;;;;;;;;;22.24;100.00;98515.09;5094936;28;19916;-44
2023/07/12 04:23:41;;;;;;;;;;;;;;;22.11;100.00;98514.63;5093704;28;19912;-45
2023/07/12 04:26:07;;;;;;;;;;;;;;;22.06;100.00;98505.84;5093747;28;19912;-44
2023/07/12 04:28:37;;;;;;;;;;;;;;;22.00;100.00;98520.34;5094800;28;19922;-45
2023/07/12 04:31:03;;;;;;;;;;;;;;;22.15;100.00;98517.53;5094860;28;20007;-44
2023/07/12 04:33:28;;;;;;;;;;;;;;;22.44;100.00;98492.72;5093410;28;19987;-45
2023/07/12 04:35:54;;;;;;;;;;;;;;;22.96;100.00;98487.56;5093466;28;20416;-45
2023/07/12 04:38:19;;;;;;;;;;;;;;;23.36;100.00;98485.47;5093420;28;20561;-45
2023/07/12 04:40:51;;;;;;;;;;;;;;;23.53;100.00;98485.78;5093296;28;20381;-45
2023/07/12 04:43:17;;;;;;;;;;;;;;;23.63;100.00;98492.88;5094600;28;20369;-45
2023/07/12 04:45:44;;;;;;;;;;;;;;;23.89;100.00;98526.25;5093204;28;20011;-45
2023/07/12 04:48:10;;;;;;;;;;;;;;;24.12;100.00;98529.13;5094398;28;19912;-45
2023/07/12 04:50:36;;;;;;;;;;;;;;;24.32;100.00;98530.66;5094440;28;20487;-45
2023/07/12 04:53:01;;;;;;;;;;;;;;;24.48;100.00;98532.00;5093043;28;19958;-45
2023/07/12 04:55:27;;;;;;;;;;;;;;;24.54;100.00;98542.66;5093001;28;20317;-45
2023/07/12 04:57:52;;;;;;;;;;;;;;;24.74;100.00;98526.19;5093008;28;19912;-45
2023/07/12 05:00:18;;;;;;;;;;;;;;;24.75;100.00;98532.34;5092961;28;20401;-45
2023/07/12 05:02:44;;;;;;;;;;;;;;;24.62;100.00;98548.16;5094229;28;19919;-45
2023/07/12 05:05:11;;;;;;;;;;;;;;;24.49;100.00;98543.53;5094438;28;19912;-45
2023/07/12 05:07:37;;;;;;;;;;;;;;;24.40;100.00;98537.25;5094287;28;19998;-45
2023/07/12 05:10:03;;;;;;;;;;;;;;;24.37;100.00;98535.97;5092801;28;20449;-45
2023/07/12 05:12:29;;;;;;;;;;;;;;;24.38;100.00;98547.47;5093966;28;20446;-45
2023/07/12 05:14:55;;;;;;;;;;;;;;;24.42;100.00;98560.00;5093975;28;19912;-45
2023/07/12 05:17:21;;;;;;;;;;;;;;;24.44;100.00;98552.44;5093873;28;19934;-45
2023/07/12 05:19:46;;;;;;;;;;;;;;;24.47;100.00;98553.78;5094151;28;19919;-45
2023/07/12 05:22:11;;;;;;;;;;;;;;;24.49;100.00;98559.63;5093793;28;20405;-45
2023/07/12 05:24:37;;;;;;;;;;;;;;;24.53;100.00;98563.34;5075621;28;19916;-45
2023/07/12 05:27:03;;;;;;;;;;;;;;;24.60;100.00;98561.06;5093614;28;20006;-45
2023/07/12 05:29:28;;;;;;;;;;;;;;;24.63;100.00;98565.84;5092384;28;19918;-45
2023/07/12 05:31:54;;;;;;;;;;;;;;;24.68;100.00;98562.28;5092333;28;19912;-45
2023/07/12 05:34:19;;;;;;;;;;;;;;;24.65;100.00;98562.84;5092084;28;20396;-45
2023/07/12 05:36:45;;;;;;;;;;;;;;;24.65;100.00;98568.22;5093275;28;19916;-45
2023/07/12 05:39:10;;;;;;;;;;;;;;;24.67;100.00;98576.75;5092182;28;19916;-45
2023/07/12 05:41:36;;;;;;;;;;;;;;;24.96;100.00;98584.56;5093706;28;19976;-45
2023/07/12 05:44:01;;;;;;;;;;;;;;;25.09;100.00;98582.97;5093368;28;20339;-45
2023/07/12 05:46:27;;;;;;;;;;;;;;;25.04;100.00;98578.50;5092056;28;19916;-45
2023/07/12 05:48:53;;;;;;;;;;;;;;;24.99;100.00;98585.84;5091948;28;19912;-45
2023/07/12 05:51:18;;;;;;;;;;;;;;;25.03;100.00;98574.25;5093263;28;19912;-45
2023/07/12 05:53:44;;;;;;;;;;;;;;;25.27;100.00;98570.56;5092009;28;20293;-45
2023/07/12 05:56:09;;;;;;;;;;;;;;;25.40;100.00;98580.50;5093035;28;20309;-45
2023/07/12 05:58:35;;;;;;;;;;;;;;;25.57;100.00;98581.78;5093164;28;20297;-45
2023/07/12 06:01:01;;;;;;;;;;;;;;;25.65;100.00;98581.06;5093049;28;19922;-45
2023/07/12 06:03:28;;;;;;;;;;;;;;;25.64;100.00;98585.66;5091752;28;20002;-45
2023/07/12 06:05:53;;;;;;;;;;;;;;;25.66;100.00;98580.75;5091735;28;19951;-45
2023/07/12 06:08:19;;;;;;;;;;;;;;;25.67;100.00;98582.34;5093144;28;19997;-45
2023/07/12 06:10:45;;;;;;;;;;;;;;;25.68;100.00;98583.16;5092901;28;19925;-45
2023/07/12 06:13:10;;;;;;;;;;;;;;;25.72;100.00;98589.50;5092880;28;19930;-45
2023/07/12 06:15:36;;;;;;;;;;;;;;;25.64;100.00;98582.97;5091529;28;19918;-45
2023/07/12 06:18:02;;;;;;;;;;;;;;;25.92;100.00;98582.91;5092816;28;19947;-45
2023/07/12 06:20:27;;;;;;;;;;;;;;;26.36;100.00;98584.03;5092803;28;19970;-45
2023/07/12 06:22:53;;;;;;;;;;;;;;;26.85;100.00;98584.16;5092744;28;19916;-45
2023/07/12 06:25:19;;;;;;;;;;;;;;;27.10;100.00;98591.53;5091414;28;19937;-45
2023/07/12 06:27:45;;;;;;;;;;;;;;;27.33;100.00;98593.38;5092666;28;20369;-45
2023/07/12 06:30:11;;;;;;;;;;;;;;;27.54;100.00;98590.88;5092591;28;19923;-45
2023/07/12 06:32:37;;;;;;;;;;;;;;;27.77;100.00;98594.22;5091279;28;19912;-45
2023/07/12 06:35:03;;;;;;;;;;;;;;;27.78;100.00;98602.00;5091044;28;19987;-45
2023/07/12 06:37:28;;;;;;;;;;;;;;;27.67;100.00;98598.84;5091485;28;19916;-45
2023/07/12 06:39:54;;;;;;;;;;;;;;;27.92;100.00;98601.88;5092485;28;19926;-46
2023/07/12 06:42:19;;;;;;;;;;;;;;;28.08;100.00;98604.91;5091167;28;19912;-45
2023/07/12 06:44:45;;;;;;;;;;;;;;;28.35;100.00;98606.44;5091128;28;20491;-46
2023/07/12 06:47:10;;;;;;;;;;;;;;;28.48;100.00;98610.88;5090984;28;19920;-45
2023/07/12 06:49:36;;;;;;;;;;;;;;;28.56;100.00;98609.31;5090438;28;19912;-45
2023/07/12 06:52:02;;;;;;;;;;;;;;;28.53;100.00;98611.88;5092289;28;19912;-45
2023/07/12 06:54:28;;;;;;;;;;;;;;;28.44;100.00;98601.84;5091037;28;20003;-45
2023/07/12 06:56:54;;;;;;;;;;;;;;;28.49;100.00;98603.56;5092249;28;19912;-45
2023/07/12 06:59:19;;;;;;;;;;;;;;;28.50;100.00;98597.09;5092292;28;19999;-45
2023/07/12 07:01:46;;;;;;;;;;;;;;;28.58;100.00;98598.19;5091319;28;19952;-45
2023/07/12 07:04:12;;;;;;;;;;;;;;;28.69;100.00;98599.44;5090901;28;19924;-45
2023/07/12 07:06:37;;;;;;;;;;;;;;;28.87;100.00;98592.84;5092109;28;19912;-45
2023/07/12 07:09:02;;;;;;;;;;;;;;;29.39;100.00;98607.28;5090878;28;19912;-45
2023/07/12 07:11:28;;;;;;;;;;;;;;;30.20;100.00;98602.56;5092105;28;20016;-45
2023/07/12 07:13:53;;;;;;;;;;;;;;;30.67;100.00;98613.13;5090843;28;20377;-45
2023/07/12 07:16:19;;;;;;;;;;;;;;;31.27;98.20;98616.25;5092138;28;19950;-45
2023/07/12 07:18:44;;;;;;;;;;;;;;;33.21;96.59;98608.81;5090784;28;19912;-46
2023/07/12 07:21:10;;;;;;;;;;;;;;;35.22;86.37;98597.53;5092065;28;19919;-46
2023/07/12 07:23:35;;;;;;;;;;;;;;;35.72;77.66;98609.19;5092057;28;19962;-46
2023/07/12 07:26:05;;;;;;;;;;;;;;;36.32;73.31;98611.84;5090727;28;19916;-46
2023/07/12 07:28:30;;;;;;;;;;;;;;;36.44;76.64;98621.72;5090617;28;20014;-46
2023/07/12 07:30:57;;;;;;;;;;;;;;;37.34;72.24;98622.50;5091975;28;19947;-46
2023/07/12 07:33:22;;;;;;;;;;;;;;;36.64;70.71;98627.78;5090433;28;19920;-46
2023/07/12 07:35:48;;;;;;;;;;;;;;;35.47;73.62;98634.16;5092007;28;19935;-46
2023/07/12 07:38:13;;;;;;;;;;;;;;;34.42;75.05;98639.78;5092099;28;20402;-46
2023/07/12 07:40:40;;;;;;;;;;;;;;;33.81;79.73;98645.94;5091809;28;20305;-46
2023/07/12 07:43:06;;;;;;;;;;;;;;;33.45;79.92;98645.13;5091862;28;19919;-46
2023/07/12 07:45:31;;;;;;;;;;;;;;;32.95;82.11;98644.69;5091796;28;19916;-46
2023/07/12 07:47:56;;;;;;;;;;;;;;;32.75;80.83;98643.00;5090414;28;20347;-46
2023/07/12 07:50:22;;;;;;;;;;;;;;;32.52;82.25;98637.31;5091774;28;19915;-46
2023/07/12 07:52:48;;;;;;;;;;;;;;;32.53;83.54;98639.69;5090475;28;19912;-46
2023/07/12 07:55:13;;;;;;;;;;;;;;;32.78;84.56;98632.22;5091715;28;19919;-46
2023/07/12 07:57:39;;;;;;;;;;;;;;;33.83;84.13;98627.31;5091694;28;19919;-46
2023/07/12 08:00:10;;;;;;;;;;;;;;;35.12;81.78;98618.81;5093007;28;20316;-46
2023/07/12 08:02:35;;;;;;;;;;;;;;;37.12;76.42;98616.13;5095485;28;20305;-46
2023/07/12 08:05:01;;;;;;;;;;;;;;;38.06;71.69;98620.19;5094042;28;19965;-46
2023/07/12 08:07:26;;;;;;;;;;;;;;;39.02;68.07;98611.34;5093977;28;19914;-46
2023/07/12 08:09:52;;;;;;;;;;;;;;;39.58;64.53;98616.34;5093919;28;20007;-46
2023/07/12 08:12:17;;;;;;;;;;;;;;;39.62;61.74;98606.91;5093894;28;20411;-46
2023/07/12 08:14:43;;;;;;;;;;;;;;;39.32;60.52;98604.59;5095134;28;20305;-46
2023/07/12 08:17:09;;;;;;;;;;;;;;;38.96;62.73;98602.69;5093832;28;19912;-46
2023/07/12 08:19:35;;;;;;;;;;;;;;;38.70;66.59;98594.88;5093853;28;19916;-46
2023/07/12 08:22:00;;;;;;;;;;;;;;;38.93;63.85;98594.47;5093750;28;20431;-47
2023/07/12 08:24:26;;;;;;;;;;;;;;;38.27;64.11;98603.00;5095038;28;20396;-46
2023/07/12 08:26:51;;;;;;;;;;;;;;;37.35;67.20;98619.41;5093622;28;19922;-46
2023/07/12 08:29:16;;;;;;;;;;;;;;;36.21;64.96;98619.16;5094912;28;19923;-46
2023/07/12 08:31:42;;;;;;;;;;;;;;;35.14;63.77;98618.44;5093539;28;19978;-46
2023/07/12 08:34:07;;;;;;;;;;;;;;;34.14;68.51;98620.16;5094615;28;20301;-46
2023/07/12 08:36:33;;;;;;;;;;;;;;;33.21;71.09;98621.63;5094723;28;19916;-46
2023/07/12 08:38:58;;;;;;;;;;;;;;;32.46;73.34;98625.94;5093395;28;19916;-46
2023/07/12 08:41:26;;;;;;;;;;;;;;;32.17;76.01;98627.06;5093345;28;19919;-46
2023/07/12 08:43:52;;;;;;;;;;;;;;;31.94;77.67;98622.16;5094569;28;20393;-46
2023/07/12 08:46:19;;;;;;;;;;;;;;;31.82;76.03;98620.25;5094434;28;20045;-46
2023/07/12 08:48:45;;;;;;;;;;;;;;;31.71;78.52;98619.13;5094438;28;19912;-46
2023/07/12 08:51:39;;;;;;;;;;;;;;;31.52;79.03;98614.31;5093125;28;19927;-46
2023/07/12 08:54:05;;;;;;;;;;;;;;;31.18;73.34;98624.47;5092802;28;20015;-46
2023/07/12 08:56:30;;;;;;;;;;;;;;;30.74;67.45;98617.97;5094410;28;20056;-45
2023/07/12 08:58:56;;;;;;;;;;;;;;;30.35;68.51;98622.84;5094514;28;19919;-45
2023/07/12 09:01:40;;;;;;;;;;;;;;;29.96;70.88;98625.69;5094241;28;20309;-46
2023/07/12 09:04:24;;;;;;;;;;;;;;;29.50;74.93;98630.13;5092979;28;20422;-46
2023/07/12 09:06:54;;;;;;;;;;;;;;;29.36;78.49;98637.66;5092753;28;20007;-46
2023/07/12 09:09:20;;;;;;;;;;;;;;;29.38;77.52;98640.81;5094088;28;19912;-46
2023/07/12 09:11:46;;;;;;;;;;;;;;;29.53;76.00;98644.91;5092157;28;19912;-46
2023/07/12 09:14:17;;;;;;;;;;;;;;;29.69;76.86;98643.19;5093974;28;19918;-46
2023/07/12 09:16:45;;;;;;;;;;;;;;;29.73;74.51;98636.03;5092570;28;20377;-46
2023/07/12 09:19:21;;;;;;;;;;;;;;;29.83;76.96;98632.16;5092550;28;20447;-46
2023/07/12 09:21:57;;;;;;;;;;;;;;;29.91;77.50;98625.88;5092520;28;19912;-46
2023/07/12 09:24:25;;;;;;;;;;;;;;;29.97;76.31;98626.47;5092521;28;20377;-46
2023/07/12 09:26:51;;;;;;;;;;;;;;;29.93;75.78;98626.34;5092353;28;19916;-46
2023/07/12 09:29:20;;;;;;;;;;;;;;;29.91;76.64;98623.19;5092379;28;19912;-46
2023/07/12 09:31:45;;;;;;;;;;;;;;;29.92;70.10;98624.75;5093515;28;20447;-46
2023/07/12 09:34:16;;;;;;;;;;;;;;;30.11;70.12;98632.41;5093387;28;19920;-46
2023/07/12 09:36:42;;;;;;;;;;;;;;;30.14;70.91;98631.75;5093531;28;19963;-46
2023/07/12 09:39:12;;;;;;;;;;;;;;;30.12;74.48;98630.50;5092192;28;20446;-46
2023/07/12 09:41:47;;;;;;;;;;;;;;;30.13;73.61;98629.38;5093523;28;19912;-46
2023/07/12 09:44:14;;;;;;;;;;;;;;;30.29;74.91;98624.94;5093411;28;19912;-46
2023/07/12 09:46:43;;;;;;;;;;;;;;;30.36;73.64;98621.72;5093126;28;19912;-46
2023/07/12 09:49:12;;;;;;;;;;;;;;;30.48;73.75;98620.97;5093337;28;19912;-46
2023/07/12 09:51:37;;;;;;;;;;;;;;;30.64;72.34;98617.28;5091936;28;19961;-46
2023/07/12 09:54:07;;;;;;;;;;;;;;;30.88;74.81;98618.47;5091962;28;19920;-46
2023/07/12 09:56:38;;;;;;;;;;;;;;;31.35;74.28;98612.63;5093174;28;19920;-46
2023/07/12 09:59:18;;;;;;;;;;;;;;;31.71;74.55;98619.13;5091866;28;19912;-46
2023/07/12 10:01:56;;;;;;;;;;;;;;;32.08;70.95;98616.38;5091806;28;19912;-46
2023/07/12 10:04:21;;;;;;;;;;;;;;;32.38;71.19;98611.38;5093337;28;19919;-46
2023/07/12 10:06:49;;;;;;;;;;;;;;;32.45;65.78;98625.13;5092988;28;20335;-46
2023/07/12 10:09:16;;;;;;;;;;;;;;;32.52;64.97;98624.53;5093018;28;19962;-46
2023/07/12 10:11:48;;;;;;;;;;;;;;;32.60;65.75;98611.97;5092921;28;19969;-46
2023/07/12 10:14:15;;;;;;;;;;;;;;;32.77;69.26;98606.19;5092916;28;20300;-45
2023/07/12 10:16:52;;;;;;;;;;;;;;;32.93;65.91;98610.84;5091512;28;20430;-46
2023/07/12 10:19:43;;;;;;;;;;;;;;;33.23;63.74;98598.38;5092831;28;19912;-46
2023/07/12 10:22:16;;;;;;;;;;;;;;;33.71;64.24;98605.66;5090522;28;19912;-46
2023/07/12 10:24:45;;;;;;;;;;;;;;;33.97;63.46;98607.75;5090597;28;19923;-46
2023/07/12 10:27:15;;;;;;;;;;;;;;;33.96;64.82;98603.44;5092551;28;20377;-46
2023/07/12 10:29:47;;;;;;;;;;;;;;;33.80;60.02;98612.47;5092696;28;19933;-46
2023/07/12 10:32:24;;;;;;;;;;;;;;;33.89;58.35;98614.22;5092599;28;20014;-46
2023/07/12 10:34:59;;;;;;;;;;;;;;;33.88;58.28;98607.94;5091141;28;20396;-46
2023/07/12 10:37:37;;;;;;;;;;;;;;;34.11;59.62;98599.88;5091287;28;19912;-46
2023/07/12 10:40:05;;;;;;;;;;;;;;;34.51;54.49;98597.88;5091249;28;20341;-46
2023/07/12 10:42:34;;;;;;;;;;;;;;;34.92;53.95;98600.94;5092511;28;19916;-46
2023/07/12 10:45:01;;;;;;;;;;;;;;;35.14;54.69;98591.94;5091145;28;19912;-46
2023/07/12 10:47:30;;;;;;;;;;;;;;;35.38;53.35;98590.75;5092417;28;19919;-46
2023/07/12 10:49:58;;;;;;;;;;;;;;;35.53;52.44;98591.72;5092414;28;19912;-46
2023/07/12 10:52:34;;;;;;;;;;;;;;;35.42;51.19;98596.28;5091011;28;19918;-46
2023/07/12 10:55:03;;;;;;;;;;;;;;;35.81;52.69;98582.38;5091041;28;19911;-46
2023/07/12 10:57:39;;;;;;;;;;;;;;;36.95;51.19;98585.47;5090992;28;19916;-46
2023/07/12 11:00:20;;;;;;;;;;;;;;;38.11;46.28;98575.94;5091072;28;19939;-46
2023/07/12 11:02:47;;;;;;;;;;;;;;;39.28;50.99;98579.13;5092303;28;19912;-47
2023/07/12 11:05:33;;;;;;;;;;;;;;;40.09;45.85;98577.28;5074120;28;19912;-46
2023/07/12 11:08:02;;;;;;;;;;;;;;;40.52;45.16;98576.25;5084595;28;19935;-46
2023/07/12 11:10:27;;;;;;;;;;;;;;;40.63;41.60;98573.38;5090824;28;20002;-47
2023/07/12 11:12:55;;;;;;;;;;;;;;;40.26;39.19;98575.59;5090887;28;19950;-46
2023/07/12 11:15:22;;;;;;;;;;;;;;;40.27;42.45;98576.41;5092426;28;19939;-47
2023/07/12 11:18:20;;;;;;;;;;;;;;;41.43;43.12;98572.25;5090836;28;19919;-47
2023/07/12 11:21:02;;;;;;;;;;;;;;;42.22;39.57;98565.78;5090736;28;19912;-47
2023/07/12 11:23:30;;;;;;;;;;;;;;;41.58;41.63;98577.63;5092060;28;20002;-46
2023/07/12 11:25:58;;;;;;;;;;;;;;;41.00;43.49;98566.41;5090735;28;19912;-46
2023/07/12 11:28:23;;;;;;;;;;;;;;;41.10;47.82;98566.28;5091896;28;19912;-46
2023/07/12 11:31:07;;;;;;;;;;;;;;;41.55;46.91;98564.66;5090654;28;19919;-46
2023/07/12 11:33:35;;;;;;;;;;;;;;;41.18;39.89;98558.00;5091732;28;19916;-46
2023/07/12 11:36:04;;;;;;;;;;;;;;;40.91;41.37;98555.88;5093635;28;19916;-45
2023/07/12 11:38:32;;;;;;;;;;;;;;;40.65;40.41;98544.31;5094520;28;19919;-46
2023/07/12 11:41:02;;;;;;;;;;;;;;;40.19;41.65;98552.88;5094481;28;20305;-46
2023/07/12 11:43:37;;;;;;;;;;;;;;;39.45;38.28;98555.59;5095745;28;20027;-46
2023/07/12 11:46:04;;;;;;;;;;;;;;;38.63;38.64;98559.19;5095744;28;19916;-46
2023/07/12 11:48:31;;;;;;;;;;;;;;;37.88;39.68;98562.56;5094342;28;19912;-46
2023/07/12 11:50:58;;;;;;;;;;;;;;;37.28;41.24;98575.56;5095583;28;19919;-46
2023/07/12 11:53:24;;;;;;;;;;;;;;;37.09;44.03;98562.91;5095568;28;19918;-46
2023/07/12 11:55:49;;;;;;;;;;;;;;;37.06;47.00;98563.66;5094253;28;20296;-46
2023/07/12 11:58:20;;;;;;;;;;;;;;;37.21;48.12;98561.03;5095544;28;19915;-46
2023/07/12 12:00:46;;;;;;;;;;;;;;;37.38;47.94;98552.16;5095824;28;20297;-46
2023/07/12 12:03:15;;;;;;;;;;;;;;;37.40;43.62;98558.03;5095692;28;19920;-47
2023/07/12 12:05:43;;;;;;;;;;;;;;;37.56;46.70;98563.19;5095327;28;19931;-46
2023/07/12 12:08:17;;;;;;;;;;;;;;;37.44;46.82;98567.03;5095245;28;19957;-46
2023/07/12 12:10:45;;;;;;;;;;;;;;;37.31;42.66;98560.34;5095253;28;20385;-46
2023/07/12 12:13:23;;;;;;;;;;;;;;;37.27;43.38;98563.03;5095170;28;19912;-47
2023/07/12 12:15:49;;;;;;;;;;;;;;;36.98;43.96;98556.56;5095139;28;19962;-46
2023/07/12 12:18:17;;;;;;;;;;;;;;;36.35;42.54;98548.22;5093879;28;19997;-46
2023/07/12 12:21:11;;;;;;;;;;;;;;;35.87;41.21;98559.03;5094941;28;19920;-46
2023/07/12 12:23:38;;;;;;;;;;;;;;;35.40;44.37;98554.91;5085605;28;19915;-46
2023/07/12 12:26:19;;;;;;;;;;;;;;;35.02;42.63;98559.41;5093668;28;19964;-46
2023/07/12 12:28:49;;;;;;;;;;;;;;;34.68;44.44;98564.72;5095148;28;19912;-46
2023/07/12 12:31:16;;;;;;;;;;;;;;;34.41;44.79;98559.19;5095125;28;20297;-46
2023/07/12 12:33:50;;;;;;;;;;;;;;;34.30;47.69;98554.69;5094603;28;19967;-46
2023/07/12 12:36:22;;;;;;;;;;;;;;;34.54;48.99;98553.56;5093568;28;19914;-46
2023/07/12 12:38:55;;;;;;;;;;;;;;;34.76;47.29;98538.38;5093452;28;19951;-46
2023/07/12 12:41:20;;;;;;;;;;;;;;;34.74;45.58;98540.69;5093396;28;19912;-46
2023/07/12 12:44:04;;;;;;;;;;;;;;;34.70;43.68;98534.38;5093350;28;19919;-46
2023/07/12 12:46:30;;;;;;;;;;;;;;;34.69;40.58;98511.78;5092327;28;20384;-45